sensor_id;sensor_type;location;lat;lon;timestamp;pressure;altitude;pressure_sealevel;temperature;humidity
46023;BME280;31756;47.936;16.224;2023-02-02T03:39:05;98566.47;;;1.73;100.00
46023;BME280;31756;47.936;16.224;2023-02-02T03:41:31;98568.88;;;1.64;100.00
46023;BME280;31756;47.936;16.224;2023-02-02T03:43:56;98571.47;;;1.70;100.00
46023;BME280;31756;47.936;16.224;2023-02-02T03:46:22;98579.91;;;1.69;100.00
46023;BME280;31756;47.936;16.224;2023-02-02T03:48:47;98582.41;;;1.71;100.00
46023;BME280;31756;47.936;16.224;2023-02-02T03:51:13;98573.09;;;1.65;100.00
46023;BME280;31756;47.936;16.224;2023-02-02T03:53:39;98574.00;;;1.69;100.00
46023;BME280;31756;47.936;16.224;2023-02-02T03:56:05;98576.44;;;1.64;100.00
46023;BME280;31756;47.936;16.224;2023-02-02T03:58:31;98571.38;;;1.64;100.00
46023;BME280;31756;47.936;16.224;2023-02-02T04:01:06;98560.44;;;1.64;100.00
46023;BME280;31756;47.936;16.224;2023-02-02T04:03:32;98572.31;;;1.69;100.00
46023;BME280;31756;47.936;16.224;2023-02-02T04:05:58;98553.81;;;1.72;100.00
46023;BME280;31756;47.936;16.224;2023-02-02T04:08:23;98560.66;;;1.80;100.00
46023;BME280;31756;47.936;16.224;2023-02-02T04:10:49;98564.91;;;1.83;100.00
46023;BME280;31756;47.936;16.224;2023-02-02T04:13:18;98551.41;;;1.82;100.00
46023;BME280;31756;47.936;16.224;2023-02-02T04:15:43;98537.09;;;1.83;100.00
46023;BME280;31756;47.936;16.224;2023-02-02T04:18:09;98543.94;;;1.89;100.00
46023;BME280;31756;47.936;16.224;2023-02-02T04:20:34;98554.06;;;1.90;100.00
46023;BME280;31756;47.936;16.224;2023-02-02T04:22:59;98562.47;;;1.89;100.00
46023;BME280;31756;47.936;16.224;2023-02-02T04:25:25;98586.13;;;1.93;100.00
46023;BME280;31756;47.936;16.224;2023-02-02T04:27:51;98578.50;;;1.91;100.00
46023;BME280;31756;47.936;16.224;2023-02-02T04:30:16;98575.13;;;1.89;100.00
46023;BME280;31756;47.936;16.224;2023-02-02T04:32:44;98572.56;;;1.86;100.00
46023;BME280;31756;47.936;16.224;2023-02-02T04:35:09;98577.59;;;1.86;100.00
46023;BME280;31756;47.936;16.224;2023-02-02T04:37:35;98580.94;;;1.82;100.00
46023;BME280;31756;47.936;16.224;2023-02-02T04:40:00;98585.97;;;1.82;100.00
46023;BME280;31756;47.936;16.224;2023-02-02T04:42:26;98584.47;;;1.95;100.00
46023;BME280;31756;47.936;16.224;2023-02-02T04:44:51;98576.13;;;2.02;100.00
46023;BME280;31756;47.936;16.224;2023-02-02T04:47:17;98565.28;;;2.09;100.00
46023;BME280;31756;47.936;16.224;2023-02-02T04:49:42;98581.31;;;2.11;100.00
46023;BME280;31756;47.936;16.224;2023-02-02T04:52:09;98578.03;;;2.18;100.00
46023;BME280;31756;47.936;16.224;2023-02-02T04:54:34;98574.66;;;2.17;100.00
46023;BME280;31756;47.936;16.224;2023-02-02T04:57:00;98573.00;;;2.21;100.00
46023;BME280;31756;47.936;16.224;2023-02-02T04:59:26;98569.00;;;2.35;100.00
46023;BME280;31756;47.936;16.224;2023-02-02T05:01:52;98550.44;;;2.35;100.00
46023;BME280;31756;47.936;16.224;2023-02-02T05:04:17;98556.38;;;2.37;100.00
46023;BME280;31756;47.936;16.224;2023-02-02T05:06:43;98555.53;;;2.39;100.00
46023;BME280;31756;47.936;16.224;2023-02-02T05:09:09;98575.81;;;2.42;100.00
46023;BME280;31756;47.936;16.224;2023-02-02T05:11:34;98579.25;;;2.46;100.00
46023;BME280;31756;47.936;16.224;2023-02-02T05:14:00;98583.38;;;2.39;100.00
46023;BME280;31756;47.936;16.224;2023-02-02T05:16:25;98571.53;;;2.38;100.00
46023;BME280;31756;47.936;16.224;2023-02-02T05:18:52;98587.50;;;2.34;100.00
46023;BME280;31756;47.936;16.224;2023-02-02T05:21:18;98592.63;;;2.37;100.00
46023;BME280;31756;47.936;16.224;2023-02-02T05:23:44;98593.44;;;2.35;100.00
46023;BME280;31756;47.936;16.224;2023-02-02T05:26:11;98591.84;;;2.43;100.00
46023;BME280;31756;47.936;16.224;2023-02-02T05:28:39;98591.78;;;2.37;100.00
46023;BME280;31756;47.936;16.224;2023-02-02T05:31:06;98571.59;;;2.41;100.00
46023;BME280;31756;47.936;16.224;2023-02-02T05:33:31;98579.09;;;2.35;100.00
46023;BME280;31756;47.936;16.224;2023-02-02T05:35:57;98574.94;;;2.37;100.00
46023;BME280;31756;47.936;16.224;2023-02-02T05:38:22;98564.72;;;2.31;100.00
46023;BME280;31756;47.936;16.224;2023-02-02T05:40:48;98586.66;;;2.32;100.00
46023;BME280;31756;47.936;16.224;2023-02-02T05:43:13;98588.25;;;2.25;100.00
46023;BME280;31756;47.936;16.224;2023-02-02T05:45:39;98583.22;;;2.27;100.00
46023;BME280;31756;47.936;16.224;2023-02-02T05:48:04;98587.38;;;2.22;100.00
46023;BME280;31756;47.936;16.224;2023-02-02T05:50:30;98589.84;;;2.19;100.00
46023;BME280;31756;47.936;16.224;2023-02-02T05:53:02;98583.09;;;2.16;100.00
46023;BME280;31756;47.936;16.224;2023-02-02T05:55:28;98583.78;;;2.06;100.00
46023;BME280;31756;47.936;16.224;2023-02-02T05:57:53;98590.56;;;2.09;100.00
46023;BME280;31756;47.936;16.224;2023-02-02T06:00:19;98609.84;;;2.04;100.00
46023;BME280;31756;47.936;16.224;2023-02-02T06:02:45;98608.13;;;1.98;100.00
46023;BME280;31756;47.936;16.224;2023-02-02T06:05:10;98609.84;;;2.04;100.00
46023;BME280;31756;47.936;16.224;2023-02-02T06:07:36;98604.88;;;2.08;100.00
46023;BME280;31756;47.936;16.224;2023-02-02T06:10:01;98594.94;;;2.20;100.00
46023;BME280;31756;47.936;16.224;2023-02-02T06:12:27;98589.97;;;2.26;100.00
46023;BME280;31756;47.936;16.224;2023-02-02T06:14:53;98591.69;;;2.30;100.00
46023;BME280;31756;47.936;16.224;2023-02-02T06:17:18;98588.38;;;2.35;100.00
46023;BME280;31756;47.936;16.224;2023-02-02T06:19:44;98597.75;;;2.43;100.00
46023;BME280;31756;47.936;16.224;2023-02-02T06:22:09;98601.03;;;2.33;100.00
46023;BME280;31756;47.936;16.224;2023-02-02T06:24:34;98608.50;;;2.27;100.00
46023;BME280;31756;47.936;16.224;2023-02-02T06:27:00;98611.88;;;2.24;100.00
46023;BME280;31756;47.936;16.224;2023-02-02T06:29:26;98625.28;;;2.22;100.00
46023;BME280;31756;47.936;16.224;2023-02-02T06:31:51;98629.44;;;2.17;100.00
46023;BME280;31756;47.936;16.224;2023-02-02T06:34:17;98637.97;;;2.25;100.00
46023;BME280;31756;47.936;16.224;2023-02-02T06:36:42;98635.44;;;2.23;100.00
46023;BME280;31756;47.936;16.224;2023-02-02T06:39:08;98648.97;;;2.27;100.00
46023;BME280;31756;47.936;16.224;2023-02-02T06:41:33;98644.59;;;2.17;100.00
46023;BME280;31756;47.936;16.224;2023-02-02T06:43:59;98659.00;;;2.19;100.00
46023;BME280;31756;47.936;16.224;2023-02-02T06:46:25;98652.19;;;2.17;100.00
46023;BME280;31756;47.936;16.224;2023-02-02T06:48:50;98661.41;;;2.13;100.00
46023;BME280;31756;47.936;16.224;2023-02-02T06:51:16;98677.41;;;2.12;100.00
46023;BME280;31756;47.936;16.224;2023-02-02T06:53:41;98670.72;;;2.14;100.00
46023;BME280;31756;47.936;16.224;2023-02-02T06:56:08;98679.19;;;2.18;100.00
46023;BME280;31756;47.936;16.224;2023-02-02T06:58:35;98680.94;;;2.20;100.00
46023;BME280;31756;47.936;16.224;2023-02-02T07:01:02;98686.69;;;2.12;100.00
46023;BME280;31756;47.936;16.224;2023-02-02T07:03:28;98686.59;;;2.06;100.00
46023;BME280;31756;47.936;16.224;2023-02-02T07:05:54;98686.72;;;2.13;100.00
46023;BME280;31756;47.936;16.224;2023-02-02T07:08:19;98691.88;;;2.21;100.00
46023;BME280;31756;47.936;16.224;2023-02-02T07:10:45;98696.94;;;2.19;100.00
46023;BME280;31756;47.936;16.224;2023-02-02T07:13:11;98699.53;;;2.24;100.00
46023;BME280;31756;47.936;16.224;2023-02-02T07:15:39;98702.97;;;2.30;100.00
46023;BME280;31756;47.936;16.224;2023-02-02T07:18:05;98700.66;;;2.44;100.00
46023;BME280;31756;47.936;16.224;2023-02-02T07:20:30;98702.44;;;2.51;100.00
46023;BME280;31756;47.936;16.224;2023-02-02T07:22:56;98706.81;;;2.61;100.00
46023;BME280;31756;47.936;16.224;2023-02-02T07:25:21;98716.97;;;2.64;100.00
46023;BME280;31756;47.936;16.224;2023-02-02T07:27:46;98723.66;;;2.61;100.00
46023;BME280;31756;47.936;16.224;2023-02-02T07:30:16;98710.97;;;2.58;100.00
46023;BME280;31756;47.936;16.224;2023-02-02T07:32:45;98717.78;;;2.63;100.00
46023;BME280;31756;47.936;16.224;2023-02-02T07:35:10;98724.63;;;2.69;100.00
46023;BME280;31756;47.936;16.224;2023-02-02T07:37:36;98727.25;;;2.76;100.00
46023;BME280;31756;47.936;16.224;2023-02-02T07:40:01;98711.19;;;2.74;100.00
46023;BME280;31756;47.936;16.224;2023-02-02T07:42:27;98722.19;;;2.76;100.00
46023;BME280;31756;47.936;16.224;2023-02-02T07:44:52;98719.66;;;2.75;100.00
46023;BME280;31756;47.936;16.224;2023-02-02T07:47:18;98723.88;;;2.78;100.00
46023;BME280;31756;47.936;16.224;2023-02-02T07:49:43;98731.59;;;2.87;100.00
46023;BME280;31756;47.936;16.224;2023-02-02T07:52:09;98738.44;;;2.94;100.00
46023;BME280;31756;47.936;16.224;2023-02-02T07:54:35;98741.03;;;2.98;100.00
46023;BME280;31756;47.936;16.224;2023-02-02T07:57:01;98750.38;;;3.02;100.00
46023;BME280;31756;47.936;16.224;2023-02-02T07:59:26;98751.31;;;3.09;100.00
46023;BME280;31756;47.936;16.224;2023-02-02T08:01:52;98750.50;;;3.11;100.00
46023;BME280;31756;47.936;16.224;2023-02-02T08:04:17;98753.06;;;3.14;100.00
46023;BME280;31756;47.936;16.224;2023-02-02T08:06:43;98756.50;;;3.19;100.00
46023;BME280;31756;47.936;16.224;2023-02-02T08:09:09;98769.19;;;3.21;100.00
46023;BME280;31756;47.936;16.224;2023-02-02T08:11:35;98765.84;;;3.22;100.00
46023;BME280;31756;47.936;16.224;2023-02-02T08:14:01;98754.16;;;3.36;100.00
46023;BME280;31756;47.936;16.224;2023-02-02T08:16:28;98762.75;;;3.49;100.00
46023;BME280;31756;47.936;16.224;2023-02-02T08:18:54;98758.66;;;3.60;100.00
46023;BME280;31756;47.936;16.224;2023-02-02T08:21:20;98757.94;;;3.75;100.00
46023;BME280;31756;47.936;16.224;2023-02-02T08:23:47;98768.13;;;3.76;100.00
46023;BME280;31756;47.936;16.224;2023-02-02T08:28:39;98763.97;;;3.84;100.00
46023;BME280;31756;47.936;16.224;2023-02-02T08:31:09;98765.69;;;3.87;100.00
46023;BME280;31756;47.936;16.224;2023-02-02T08:33:35;98769.81;;;3.79;100.00
46023;BME280;31756;47.936;16.224;2023-02-02T08:36:02;98780.81;;;3.79;100.00
46023;BME280;31756;47.936;16.224;2023-02-02T08:38:27;98773.22;;;3.82;100.00
46023;BME280;31756;47.936;16.224;2023-02-02T08:40:53;98775.81;;;3.85;100.00
46023;BME280;31756;47.936;16.224;2023-02-02T08:43:19;98781.00;;;3.97;100.00
46023;BME280;31756;47.936;16.224;2023-02-02T08:45:45;98775.06;;;3.94;100.00
46023;BME280;31756;47.936;16.224;2023-02-02T08:48:12;98789.50;;;4.01;100.00
46023;BME280;31756;47.936;16.224;2023-02-02T08:50:38;98779.41;;;4.08;100.00
46023;BME280;31756;47.936;16.224;2023-02-02T08:53:03;98771.06;;;4.22;100.00
46023;BME280;31756;47.936;16.224;2023-02-02T08:55:29;98777.91;;;4.30;100.00
46023;BME280;31756;47.936;16.224;2023-02-02T08:57:54;98789.84;;;4.40;100.00
46023;BME280;31756;47.936;16.224;2023-02-02T09:00:20;98771.25;;;4.44;100.00
46023;BME280;31756;47.936;16.224;2023-02-02T09:02:49;98781.47;;;4.52;100.00
46023;BME280;31756;47.936;16.224;2023-02-02T09:05:14;98778.06;;;4.45;100.00
46023;BME280;31756;47.936;16.224;2023-02-02T09:07:39;98793.06;;;4.23;100.00
46023;BME280;31756;47.936;16.224;2023-02-02T09:10:05;98787.13;;;4.21;100.00
46023;BME280;31756;47.936;16.224;2023-02-02T09:12:30;98802.28;;;4.13;100.00
46023;BME280;31756;47.936;16.224;2023-02-02T09:14:56;98792.97;;;4.10;100.00
46023;BME280;31756;47.936;16.224;2023-02-02T09:17:21;98790.41;;;4.06;100.00
46023;BME280;31756;47.936;16.224;2023-02-02T09:19:48;98791.16;;;3.99;100.00
46023;BME280;31756;47.936;16.224;2023-02-02T09:22:14;98800.38;;;3.91;100.00
46023;BME280;31756;47.936;16.224;2023-02-02T09:24:39;98793.69;;;3.99;100.00
46023;BME280;31756;47.936;16.224;2023-02-02T09:27:05;98795.44;;;4.04;100.00
46023;BME280;31756;47.936;16.224;2023-02-02T09:29:31;98797.09;;;3.98;100.00
46023;BME280;31756;47.936;16.224;2023-02-02T09:31:56;98797.84;;;3.92;100.00
46023;BME280;31756;47.936;16.224;2023-02-02T09:34:23;98799.59;;;3.96;100.00
46023;BME280;31756;47.936;16.224;2023-02-02T09:36:48;98804.63;;;3.92;100.00
46023;BME280;31756;47.936;16.224;2023-02-02T09:39:14;98811.38;;;3.90;100.00
46023;BME280;31756;47.936;16.224;2023-02-02T09:49:23;98800.88;;;4.47;100.00
46023;BME280;31756;47.936;16.224;2023-02-02T09:51:53;98813.59;;;4.45;100.00
46023;BME280;31756;47.936;16.224;2023-02-02T09:54:22;98807.56;;;4.36;100.00
46023;BME280;31756;47.936;16.224;2023-02-02T09:56:51;98801.66;;;4.37;100.00
46023;BME280;31756;47.936;16.224;2023-02-02T09:59:24;98800.16;;;4.62;100.00
46023;BME280;31756;47.936;16.224;2023-02-02T10:01:52;98792.66;;;4.75;100.00
46023;BME280;31756;47.936;16.224;2023-02-02T10:04:35;98791.09;;;5.00;100.00
46023;BME280;31756;47.936;16.224;2023-02-02T10:07:08;98787.00;;;5.25;100.00
46023;BME280;31756;47.936;16.224;2023-02-02T10:09:37;98790.44;;;5.34;100.00
46023;BME280;31756;47.936;16.224;2023-02-02T10:14:53;98808.13;;;5.16;100.00
46023;BME280;31756;47.936;16.224;2023-02-02T10:17:36;98792.78;;;5.01;100.00
46023;BME280;31756;47.936;16.224;2023-02-02T10:20:17;98791.97;;;5.06;100.00
46023;BME280;31756;47.936;16.224;2023-02-02T10:22:45;98793.69;;;5.09;100.00
46023;BME280;31756;47.936;16.224;2023-02-02T10:25:12;98785.97;;;4.91;100.00
46023;BME280;31756;47.936;16.224;2023-02-02T10:27:38;98779.09;;;4.78;100.00
46023;BME280;31756;47.936;16.224;2023-02-02T10:30:49;98765.47;;;4.64;100.00
46023;BME280;31756;47.936;16.224;2023-02-02T10:33:04;98790.00;;;4.62;100.00
46023;BME280;31756;47.936;16.224;2023-02-02T10:35:41;98774.81;;;4.69;100.00
46023;BME280;31756;47.936;16.224;2023-02-02T10:38:32;98787.50;;;4.68;100.00
46023;BME280;31756;47.936;16.224;2023-02-02T10:49:14;98771.41;;;4.66;100.00
46023;BME280;31756;47.936;16.224;2023-02-02T10:51:50;98772.31;;;4.74;100.00
46023;BME280;31756;47.936;16.224;2023-02-02T10:54:32;98773.13;;;4.71;100.00
46023;BME280;31756;47.936;16.224;2023-02-02T10:56:59;98772.34;;;4.80;100.00
46023;BME280;31756;47.936;16.224;2023-02-02T10:59:31;98771.53;;;4.82;100.00
46023;BME280;31756;47.936;16.224;2023-02-02T11:01:57;98774.03;;;4.78;100.00
46023;BME280;31756;47.936;16.224;2023-02-02T11:04:23;98779.19;;;4.91;100.00
46023;BME280;31756;47.936;16.224;2023-02-02T11:07:08;98780.91;;;4.94;100.00
46023;BME280;31756;47.936;16.224;2023-02-02T11:09:38;98781.78;;;4.99;100.00
46023;BME280;31756;47.936;16.224;2023-02-02T11:14:51;98778.22;;;4.73;100.00
46023;BME280;31756;47.936;16.224;2023-02-02T11:17:22;98772.28;;;4.69;100.00
46023;BME280;31756;47.936;16.224;2023-02-02T11:19:48;98763.03;;;4.79;100.00
46023;BME280;31756;47.936;16.224;2023-02-02T11:24:49;98770.59;;;4.70;100.00
46023;BME280;31756;47.936;16.224;2023-02-02T11:27:16;98768.03;;;4.65;100.00
46023;BME280;31756;47.936;16.224;2023-02-02T11:29:44;98797.66;;;4.66;100.00
46023;BME280;31756;47.936;16.224;2023-02-02T11:38:04;98775.59;;;4.60;100.00
46023;BME280;31756;47.936;16.224;2023-02-02T11:40:38;98792.56;;;4.65;100.00
46023;BME280;31756;47.936;16.224;2023-02-02T11:43:18;98780.69;;;4.64;100.00
46023;BME280;31756;47.936;16.224;2023-02-02T11:45:45;98790.81;;;4.56;100.00
46023;BME280;31756;47.936;16.224;2023-02-02T11:50:46;98770.53;;;4.64;100.00
46023;BME280;31756;47.936;16.224;2023-02-02T11:53:21;98759.53;;;4.60;100.00
46023;BME280;31756;47.936;16.224;2023-02-02T11:55:47;98759.53;;;4.60;100.00
46023;BME280;31756;47.936;16.224;2023-02-02T11:58:20;98769.69;;;4.62;100.00
46023;BME280;31756;47.936;16.224;2023-02-02T12:00:55;98764.66;;;4.69;100.00
46023;BME280;31756;47.936;16.224;2023-02-02T12:03:21;98763.75;;;4.61;100.00
46023;BME280;31756;47.936;16.224;2023-02-02T12:05:47;98765.44;;;4.57;100.00
46023;BME280;31756;47.936;16.224;2023-02-02T12:08:14;98787.41;;;4.55;100.00
46023;BME280;31756;47.936;16.224;2023-02-02T12:10:45;98763.69;;;4.50;100.00
46023;BME280;31756;47.936;16.224;2023-02-02T12:15:45;98766.25;;;4.55;100.00
46023;BME280;31756;47.936;16.224;2023-02-02T12:18:18;98756.03;;;4.44;100.00
46023;BME280;31756;47.936;16.224;2023-02-02T12:20:58;98766.22;;;4.49;100.00
46023;BME280;31756;47.936;16.224;2023-02-02T12:39:08;98787.13;;;4.21;100.00
46023;BME280;31756;47.936;16.224;2023-02-02T13:09:28;98776.09;;;4.14;100.00
46023;BME280;31756;47.936;16.224;2023-02-02T13:11:58;98778.59;;;4.11;100.00
46023;BME280;31756;47.936;16.224;2023-02-02T13:14:27;98776.94;;;4.16;100.00
46023;BME280;31756;47.936;16.224;2023-02-02T13:17:03;98778.59;;;4.09;100.00
46023;BME280;31756;47.936;16.224;2023-02-02T13:19:34;98783.59;;;4.02;100.00
46023;BME280;31756;47.936;16.224;2023-02-02T13:22:02;98785.38;;;4.10;100.00
46023;BME280;31756;47.936;16.224;2023-02-02T13:24:30;98776.03;;;4.09;100.00
46023;BME280;31756;47.936;16.224;2023-02-02T13:27:00;98770.13;;;4.12;100.00
46023;BME280;31756;47.936;16.224;2023-02-02T13:29:32;98778.66;;;4.19;100.00
46023;BME280;31756;47.936;16.224;2023-02-02T13:32:01;98780.38;;;4.21;100.00
46023;BME280;31756;47.936;16.224;2023-02-02T13:37:02;98777.06;;;4.28;100.00
46023;BME280;31756;47.936;16.224;2023-02-02T13:39:32;98781.22;;;4.22;100.00
46023;BME280;31756;47.936;16.224;2023-02-02T13:41:58;98779.56;;;4.25;100.00
46023;BME280;31756;47.936;16.224;2023-02-02T13:44:36;98786.28;;;4.19;100.00
46023;BME280;31756;47.936;16.224;2023-02-02T13:47:06;98776.94;;;4.16;100.00
46023;BME280;31756;47.936;16.224;2023-02-02T13:49:35;98776.09;;;4.17;100.00
46023;BME280;31756;47.936;16.224;2023-02-02T13:54:48;98790.44;;;4.12;100.00
46023;BME280;31756;47.936;16.224;2023-02-02T14:00:11;98800.44;;;3.97;100.00
46023;BME280;31756;47.936;16.224;2023-02-02T14:02:38;98822.38;;;3.95;100.00
46023;BME280;31756;47.936;16.224;2023-02-02T14:05:06;98803.75;;;3.88;100.00
46023;BME280;31756;47.936;16.224;2023-02-02T14:07:35;98817.19;;;3.83;100.00
46023;BME280;31756;47.936;16.224;2023-02-02T14:10:01;98816.31;;;3.79;100.00
46023;BME280;31756;47.936;16.224;2023-02-02T14:12:32;98808.78;;;3.87;100.00
46023;BME280;31756;47.936;16.224;2023-02-02T14:14:58;98821.41;;;3.78;100.00
46023;BME280;31756;47.936;16.224;2023-02-02T14:19:59;98816.31;;;3.79;100.00
46023;BME280;31756;47.936;16.224;2023-02-02T14:24:50;98828.13;;;3.79;100.00
46023;BME280;31756;47.936;16.224;2023-02-02T14:45:27;98832.34;;;3.75;100.00
46023;BME280;31756;47.936;16.224;2023-02-02T14:47:53;98838.28;;;3.77;100.00
46023;BME280;31756;47.936;16.224;2023-02-02T14:50:25;98847.50;;;3.69;100.00
46023;BME280;31756;47.936;16.224;2023-02-02T14:52:58;98855.03;;;3.64;100.00
46023;BME280;31756;47.936;16.224;2023-02-02T14:55:25;98853.31;;;3.60;100.00
46023;BME280;31756;47.936;16.224;2023-02-02T14:57:59;98855.84;;;3.60;100.00
46023;BME280;31756;47.936;16.224;2023-02-02T15:00:27;98866.78;;;3.58;100.00
46023;BME280;31756;47.936;16.224;2023-02-02T15:02:54;98864.28;;;3.59;100.00
46023;BME280;31756;47.936;16.224;2023-02-02T15:13:14;98886.03;;;3.45;100.00
46023;BME280;31756;47.936;16.224;2023-02-02T15:15:41;98878.44;;;3.45;100.00
46023;BME280;31756;47.936;16.224;2023-02-02T15:18:12;98881.78;;;3.44;100.00
46023;BME280;31756;47.936;16.224;2023-02-02T15:20:49;98889.41;;;3.44;100.00
46023;BME280;31756;47.936;16.224;2023-02-02T15:26:30;98892.72;;;3.40;100.00
46023;BME280;31756;47.936;16.224;2023-02-02T15:28:39;98894.50;;;3.46;100.00
46023;BME280;31756;47.936;16.224;2023-02-02T15:31:15;98889.47;;;3.47;100.00
46023;BME280;31756;47.936;16.224;2023-02-02T15:33:46;98907.16;;;3.46;100.00
46023;BME280;31756;47.936;16.224;2023-02-02T15:36:34;98916.38;;;3.41;100.00
46023;BME280;31756;47.936;16.224;2023-02-02T15:39:00;98920.72;;;3.49;100.00
46023;BME280;31756;47.936;16.224;2023-02-02T15:43:52;98923.06;;;3.36;100.00
46023;BME280;31756;47.936;16.224;2023-02-02T15:46:22;98936.53;;;3.32;100.00
46023;BME280;31756;47.936;16.224;2023-02-02T15:51:34;98933.19;;;3.34;100.00
46023;BME280;31756;47.936;16.224;2023-02-02T15:54:00;98940.72;;;3.30;100.00
46023;BME280;31756;47.936;16.224;2023-02-02T15:56:29;98943.34;;;3.34;100.00
46023;BME280;31756;47.936;16.224;2023-02-02T15:58:57;98941.63;;;3.33;100.00
46023;BME280;31756;47.936;16.224;2023-02-02T16:01:24;98949.19;;;3.30;100.00
46023;BME280;31756;47.936;16.224;2023-02-02T16:06:35;98965.97;;;3.22;100.00
46023;BME280;31756;47.936;16.224;2023-02-02T16:09:03;98961.72;;;3.22;100.00
46023;BME280;31756;47.936;16.224;2023-02-02T16:11:29;98974.38;;;3.22;100.00
46023;BME280;31756;47.936;16.224;2023-02-02T16:13:59;98973.59;;;3.25;100.00
46023;BME280;31756;47.936;16.224;2023-02-02T16:16:30;98975.19;;;3.20;100.00
46023;BME280;31756;47.936;16.224;2023-02-02T16:19:03;98986.25;;;3.25;100.00
46023;BME280;31756;47.936;16.224;2023-02-02T16:21:29;98988.72;;;3.20;100.00
46023;BME280;31756;47.936;16.224;2023-02-02T16:23:55;98979.41;;;3.19;100.00
46023;BME280;31756;47.936;16.224;2023-02-02T16:26:22;98991.25;;;3.20;100.00
46023;BME280;31756;47.936;16.224;2023-02-02T16:28:49;98991.28;;;3.22;100.00
46023;BME280;31756;47.936;16.224;2023-02-02T16:31:15;98999.63;;;3.16;100.00
46023;BME280;31756;47.936;16.224;2023-02-02T16:33:41;99005.53;;;3.14;100.00
46023;BME280;31756;47.936;16.224;2023-02-02T16:36:21;99018.19;;;3.15;100.00
46023;BME280;31756;47.936;16.224;2023-02-02T16:38:47;99020.75;;;3.17;100.00
46023;BME280;31756;47.936;16.224;2023-02-02T16:41:25;99034.25;;;3.16;100.00
46023;BME280;31756;47.936;16.224;2023-02-02T16:43:51;99022.59;;;3.27;100.00
46023;BME280;31756;47.936;16.224;2023-02-02T16:46:38;99034.41;;;3.25;100.00
46023;BME280;31756;47.936;16.224;2023-02-02T16:49:02;99036.75;;;3.14;100.00
46023;BME280;31756;47.936;16.224;2023-02-02T16:51:30;99036.69;;;3.11;100.00
46023;BME280;31756;47.936;16.224;2023-02-02T16:56:27;99055.19;;;3.07;100.00
46023;BME280;31756;47.936;16.224;2023-02-02T16:58:53;99061.09;;;3.06;100.00
46023;BME280;31756;47.936;16.224;2023-02-02T17:01:29;99056.84;;;3.04;100.00
46023;BME280;31756;47.936;16.224;2023-02-02T17:03:56;99063.53;;;3.02;100.00
46023;BME280;31756;47.936;16.224;2023-02-02T17:06:24;99066.03;;;2.99;100.00
46023;BME280;31756;47.936;16.224;2023-02-02T17:08:51;99068.50;;;2.97;100.00
46023;BME280;31756;47.936;16.224;2023-02-02T17:11:26;99074.50;;;3.01;100.00
46023;BME280;31756;47.936;16.224;2023-02-02T17:13:52;99074.56;;;3.04;100.00
46023;BME280;31756;47.936;16.224;2023-02-02T17:16:19;99077.03;;;3.01;100.00
46023;BME280;31756;47.936;16.224;2023-02-02T17:18:47;99074.47;;;2.99;100.00
46023;BME280;31756;47.936;16.224;2023-02-02T17:21:17;99082.03;;;2.98;100.00
46023;BME280;31756;47.936;16.224;2023-02-02T17:23:44;99078.59;;;2.94;100.00
46023;BME280;31756;47.936;16.224;2023-02-02T17:26:10;99093.75;;;2.91;100.00
46023;BME280;31756;47.936;16.224;2023-02-02T17:28:37;99086.94;;;2.89;100.00
46023;BME280;31756;47.936;16.224;2023-02-02T17:31:13;99086.06;;;2.87;100.00
46023;BME280;31756;47.936;16.224;2023-02-02T17:33:40;99080.94;;;2.84;100.00
46023;BME280;31756;47.936;16.224;2023-02-02T17:36:07;99081.00;;;2.87;100.00
46023;BME280;31756;47.936;16.224;2023-02-02T17:38:32;99086.88;;;2.86;100.00
46023;BME280;31756;47.936;16.224;2023-02-02T17:40:59;99080.94;;;2.84;100.00
46023;BME280;31756;47.936;16.224;2023-02-02T17:43:26;99074.16;;;2.83;100.00
46023;BME280;31756;47.936;16.224;2023-02-02T17:45:51;99084.34;;;2.86;100.00
46023;BME280;31756;47.936;16.224;2023-02-02T17:48:17;99089.41;;;2.86;100.00
46023;BME280;31756;47.936;16.224;2023-02-02T17:50:48;99103.75;;;2.85;100.00
46023;BME280;31756;47.936;16.224;2023-02-02T17:53:15;99106.19;;;2.81;100.00
46023;BME280;31756;47.936;16.224;2023-02-02T17:55:42;99112.91;;;2.80;100.00
46023;BME280;31756;47.936;16.224;2023-02-02T17:58:10;99115.41;;;2.75;100.00
46023;BME280;31756;47.936;16.224;2023-02-02T18:00:37;99105.25;;;2.75;100.00
46023;BME280;31756;47.936;16.224;2023-02-02T18:03:09;99110.44;;;2.82;100.00
46023;BME280;31756;47.936;16.224;2023-02-02T18:05:36;99105.31;;;2.79;100.00
46023;BME280;31756;47.936;16.224;2023-02-02T18:08:02;99109.53;;;2.78;100.00
46023;BME280;31756;47.936;16.224;2023-02-02T18:10:28;99107.00;;;2.78;100.00
46023;BME280;31756;47.936;16.224;2023-02-02T18:12:54;99141.63;;;2.81;100.00
46023;BME280;31756;47.936;16.224;2023-02-02T18:15:20;99117.88;;;2.74;100.00
46023;BME280;31756;47.936;16.224;2023-02-02T18:17:46;99107.63;;;2.68;100.00
46023;BME280;31756;47.936;16.224;2023-02-02T18:20:14;99119.56;;;2.73;100.00
46023;BME280;31756;47.936;16.224;2023-02-02T18:22:41;99122.91;;;2.72;100.00
46023;BME280;31756;47.936;16.224;2023-02-02T18:25:12;99109.34;;;2.69;100.00
46023;BME280;31756;47.936;16.224;2023-02-02T18:27:37;99114.44;;;2.72;100.00
46023;BME280;31756;47.936;16.224;2023-02-02T18:30:03;99133.88;;;2.71;100.00
46023;BME280;31756;47.936;16.224;2023-02-02T18:32:29;99137.31;;;2.75;100.00
46023;BME280;31756;47.936;16.224;2023-02-02T18:34:55;99123.75;;;2.73;100.00
46023;BME280;31756;47.936;16.224;2023-02-02T18:37:23;99131.25;;;2.68;100.00
46023;BME280;31756;47.936;16.224;2023-02-02T18:40:09;99139.56;;;2.61;100.00
46023;BME280;31756;47.936;16.224;2023-02-02T18:42:35;99155.41;;;2.53;100.00
46023;BME280;31756;47.936;16.224;2023-02-02T18:45:01;99141.13;;;2.56;100.00